sensor_id;sensor_type;location;lat;lon;timestamp;P1;durP1;ratioP1;P2;durP2;ratioP2
65552;SDS011;52465;51.560;14.368;2023-04-01T00:01:13;5.50;;;5.13;;
65552;SDS011;52465;51.560;14.368;2023-04-01T00:03:39;4.60;;;4.40;;
65552;SDS011;52465;51.560;14.368;2023-04-01T00:06:08;5.13;;;4.93;;
65552;SDS011;52465;51.560;14.368;2023-04-01T00:08:36;4.80;;;4.60;;
65552;SDS011;52465;51.560;14.368;2023-04-01T00:11:01;5.00;;;4.80;;
65552;SDS011;52465;51.560;14.368;2023-04-01T00:13:30;5.20;;;4.90;;
65552;SDS011;52465;51.560;14.368;2023-04-01T00:15:56;4.88;;;4.68;;
65552;SDS011;52465;51.560;14.368;2023-04-01T00:18:22;5.03;;;4.72;;
65552;SDS011;52465;51.560;14.368;2023-04-01T00:20:50;5.20;;;4.80;;
65552;SDS011;52465;51.560;14.368;2023-04-01T00:23:37;4.95;;;4.65;;
65552;SDS011;52465;51.560;14.368;2023-04-01T00:26:21;4.90;;;4.70;;
65552;SDS011;52465;51.560;14.368;2023-04-01T00:28:50;5.07;;;4.88;;
65552;SDS011;52465;51.560;14.368;2023-04-01T00:31:16;4.82;;;4.63;;
65552;SDS011;52465;51.560;14.368;2023-04-01T00:33:41;5.10;;;4.80;;
65552;SDS011;52465;51.560;14.368;2023-04-01T00:36:10;4.85;;;4.65;;
65552;SDS011;52465;51.560;14.368;2023-04-01T00:41:03;4.80;;;4.60;;
65552;SDS011;52465;51.560;14.368;2023-04-01T00:43:32;5.10;;;4.70;;
65552;SDS011;52465;51.560;14.368;2023-04-01T00:45:58;5.03;;;4.72;;
65552;SDS011;52465;51.560;14.368;2023-04-01T00:48:25;5.20;;;4.90;;
65552;SDS011;52465;51.560;14.368;2023-04-01T00:53:18;5.40;;;5.10;;
65552;SDS011;52465;51.560;14.368;2023-04-01T00:55:54;4.80;;;4.60;;
65552;SDS011;52465;51.560;14.368;2023-04-01T01:03:19;5.00;;;4.70;;
65552;SDS011;52465;51.560;14.368;2023-04-01T01:11:47;5.30;;;4.90;;
65552;SDS011;52465;51.560;14.368;2023-04-01T01:14:26;4.93;;;4.63;;
65552;SDS011;52465;51.560;14.368;2023-04-01T01:16:54;4.72;;;4.47;;
65552;SDS011;52465;51.560;14.368;2023-04-01T01:22:02;4.70;;;4.50;;
65552;SDS011;52465;51.560;14.368;2023-04-01T01:27:48;4.90;;;4.70;;
65552;SDS011;52465;51.560;14.368;2023-04-01T01:30:46;4.90;;;4.70;;
65552;SDS011;52465;51.560;14.368;2023-04-01T01:33:40;4.85;;;4.65;;
65552;SDS011;52465;51.560;14.368;2023-04-01T01:36:16;4.88;;;4.68;;
65552;SDS011;52465;51.560;14.368;2023-04-01T01:38:43;4.88;;;4.68;;
65552;SDS011;52465;51.560;14.368;2023-04-01T01:41:10;5.03;;;4.82;;
65552;SDS011;52465;51.560;14.368;2023-04-01T01:43:42;5.15;;;4.85;;
65552;SDS011;52465;51.560;14.368;2023-04-01T01:46:10;5.45;;;5.07;;
65552;SDS011;52465;51.560;14.368;2023-04-01T01:48:39;4.82;;;4.63;;
65552;SDS011;52465;51.560;14.368;2023-04-01T01:51:09;4.90;;;4.70;;
65552;SDS011;52465;51.560;14.368;2023-04-01T01:53:35;5.00;;;4.80;;
65552;SDS011;52465;51.560;14.368;2023-04-01T01:56:02;5.07;;;4.88;;
65552;SDS011;52465;51.560;14.368;2023-04-01T02:00:50;5.25;;;4.97;;
65552;SDS011;52465;51.560;14.368;2023-04-01T02:03:21;5.13;;;4.85;;
65552;SDS011;52465;51.560;14.368;2023-04-01T02:05:49;5.22;;;4.93;;
65552;SDS011;52465;51.560;14.368;2023-04-01T02:08:44;5.05;;;4.85;;
65552;SDS011;52465;51.560;14.368;2023-04-01T02:11:17;5.15;;;4.95;;
65552;SDS011;52465;51.560;14.368;2023-04-01T02:14:01;4.97;;;4.78;;
65552;SDS011;52465;51.560;14.368;2023-04-01T02:16:34;5.15;;;4.95;;
65552;SDS011;52465;51.560;14.368;2023-04-01T02:19:20;5.03;;;4.82;;
65552;SDS011;52465;51.560;14.368;2023-04-01T02:21:51;4.78;;;4.57;;
65552;SDS011;52465;51.560;14.368;2023-04-01T02:24:27;5.25;;;5.05;;
65552;SDS011;52465;51.560;14.368;2023-04-01T02:26:56;5.47;;;5.18;;
65552;SDS011;52465;51.560;14.368;2023-04-01T02:29:23;5.10;;;4.90;;
65552;SDS011;52465;51.560;14.368;2023-04-01T02:31:51;5.20;;;4.80;;
65552;SDS011;52465;51.560;14.368;2023-04-01T02:34:24;5.55;;;5.25;;
65552;SDS011;52465;51.560;14.368;2023-04-01T02:36:52;5.32;;;5.03;;
65552;SDS011;52465;51.560;14.368;2023-04-01T02:39:20;5.20;;;5.00;;
65552;SDS011;52465;51.560;14.368;2023-04-01T02:42:04;4.88;;;4.68;;
65552;SDS011;52465;51.560;14.368;2023-04-01T02:44:30;4.93;;;4.72;;
65552;SDS011;52465;51.560;14.368;2023-04-01T02:46:56;5.03;;;4.82;;
65552;SDS011;52465;51.560;14.368;2023-04-01T02:49:21;5.53;;;5.13;;
65552;SDS011;52465;51.560;14.368;2023-04-01T02:51:47;5.00;;;4.80;;
65552;SDS011;52465;51.560;14.368;2023-04-01T02:54:13;5.10;;;4.90;;
65552;SDS011;52465;51.560;14.368;2023-04-01T02:56:38;4.97;;;4.68;;
65552;SDS011;52465;51.560;14.368;2023-04-01T02:59:04;5.40;;;5.10;;
65552;SDS011;52465;51.560;14.368;2023-04-01T03:01:29;5.10;;;4.90;;
65552;SDS011;52465;51.560;14.368;2023-04-01T03:03:56;5.30;;;5.00;;
65552;SDS011;52465;51.560;14.368;2023-04-01T03:06:22;5.00;;;4.80;;
65552;SDS011;52465;51.560;14.368;2023-04-01T03:08:47;4.95;;;4.75;;
65552;SDS011;52465;51.560;14.368;2023-04-01T03:11:13;4.90;;;4.70;;
65552;SDS011;52465;51.560;14.368;2023-04-01T03:13:39;5.15;;;4.85;;
65552;SDS011;52465;51.560;14.368;2023-04-01T03:16:04;5.03;;;4.72;;
65552;SDS011;52465;51.560;14.368;2023-04-01T03:18:30;5.13;;;4.78;;
65552;SDS011;52465;51.560;14.368;2023-04-01T03:20:55;5.30;;;5.00;;
65552;SDS011;52465;51.560;14.368;2023-04-01T03:23:20;5.25;;;5.05;;
65552;SDS011;52465;51.560;14.368;2023-04-01T03:25:46;4.93;;;4.63;;
65552;SDS011;52465;51.560;14.368;2023-04-01T03:28:12;4.80;;;4.60;;
65552;SDS011;52465;51.560;14.368;2023-04-01T03:30:38;4.80;;;4.60;;
65552;SDS011;52465;51.560;14.368;2023-04-01T03:33:05;5.20;;;4.90;;
65552;SDS011;52465;51.560;14.368;2023-04-01T03:35:30;4.93;;;4.63;;
65552;SDS011;52465;51.560;14.368;2023-04-01T03:37:56;5.03;;;4.72;;
65552;SDS011;52465;51.560;14.368;2023-04-01T03:40:22;5.35;;;5.07;;
65552;SDS011;52465;51.560;14.368;2023-04-01T03:42:48;5.10;;;4.90;;
65552;SDS011;52465;51.560;14.368;2023-04-01T03:45:14;5.00;;;4.80;;
65552;SDS011;52465;51.560;14.368;2023-04-01T03:47:40;4.70;;;4.50;;
65552;SDS011;52465;51.560;14.368;2023-04-01T03:50:06;5.25;;;5.05;;
65552;SDS011;52465;51.560;14.368;2023-04-01T03:52:33;5.30;;;5.00;;
65552;SDS011;52465;51.560;14.368;2023-04-01T03:54:59;5.10;;;4.80;;
65552;SDS011;52465;51.560;14.368;2023-04-01T03:57:25;4.90;;;4.70;;
65552;SDS011;52465;51.560;14.368;2023-04-01T03:59:53;5.30;;;5.00;;
65552;SDS011;52465;51.560;14.368;2023-04-01T04:02:19;5.20;;;5.00;;
65552;SDS011;52465;51.560;14.368;2023-04-01T04:04:45;4.90;;;4.70;;
65552;SDS011;52465;51.560;14.368;2023-04-01T04:07:11;5.10;;;4.80;;
65552;SDS011;52465;51.560;14.368;2023-04-01T04:09:37;5.20;;;4.82;;
65552;SDS011;52465;51.560;14.368;2023-04-01T04:12:02;5.20;;;4.90;;
65552;SDS011;52465;51.560;14.368;2023-04-01T04:14:31;5.32;;;4.97;;
65552;SDS011;52465;51.560;14.368;2023-04-01T04:16:57;4.97;;;4.78;;
65552;SDS011;52465;51.560;14.368;2023-04-01T04:19:23;4.63;;;4.43;;
65552;SDS011;52465;51.560;14.368;2023-04-01T04:21:48;5.10;;;4.80;;
65552;SDS011;52465;51.560;14.368;2023-04-01T04:24:14;4.80;;;4.60;;
65552;SDS011;52465;51.560;14.368;2023-04-01T04:26:40;5.40;;;5.05;;
65552;SDS011;52465;51.560;14.368;2023-04-01T04:29:05;5.25;;;5.05;;
65552;SDS011;52465;51.560;14.368;2023-04-01T04:31:30;4.80;;;4.60;;
65552;SDS011;52465;51.560;14.368;2023-04-01T04:33:56;5.32;;;5.03;;
65552;SDS011;52465;51.560;14.368;2023-04-01T04:36:24;4.88;;;4.57;;
65552;SDS011;52465;51.560;14.368;2023-04-01T04:38:49;5.10;;;4.90;;
65552;SDS011;52465;51.560;14.368;2023-04-01T04:41:16;5.05;;;4.78;;
65552;SDS011;52465;51.560;14.368;2023-04-01T04:43:47;4.97;;;4.78;;
65552;SDS011;52465;51.560;14.368;2023-04-01T04:46:16;5.05;;;4.85;;
65552;SDS011;52465;51.560;14.368;2023-04-01T04:48:43;4.85;;;4.65;;
65552;SDS011;52465;51.560;14.368;2023-04-01T04:51:27;4.68;;;4.47;;
65552;SDS011;52465;51.560;14.368;2023-04-01T04:54:11;5.10;;;4.80;;
65552;SDS011;52465;51.560;14.368;2023-04-01T04:56:36;4.90;;;4.70;;
65552;SDS011;52465;51.560;14.368;2023-04-01T04:59:02;5.10;;;4.80;;
65552;SDS011;52465;51.560;14.368;2023-04-01T05:01:27;4.95;;;4.75;;
65552;SDS011;52465;51.560;14.368;2023-04-01T05:03:52;5.28;;;4.97;;
65552;SDS011;52465;51.560;14.368;2023-04-01T05:06:18;4.88;;;4.68;;
65552;SDS011;52465;51.560;14.368;2023-04-01T05:08:44;5.07;;;4.80;;
65552;SDS011;52465;51.560;14.368;2023-04-01T05:11:13;5.03;;;4.82;;
65552;SDS011;52465;51.560;14.368;2023-04-01T05:13:52;5.25;;;5.00;;
65552;SDS011;52465;51.560;14.368;2023-04-01T05:16:18;4.93;;;4.72;;
65552;SDS011;52465;51.560;14.368;2023-04-01T05:18:45;4.95;;;4.70;;
65552;SDS011;52465;51.560;14.368;2023-04-01T05:21:12;5.10;;;4.90;;
65552;SDS011;52465;51.560;14.368;2023-04-01T05:23:38;4.78;;;4.57;;
65552;SDS011;52465;51.560;14.368;2023-04-01T05:26:07;4.80;;;4.60;;
65552;SDS011;52465;51.560;14.368;2023-04-01T05:28:53;5.05;;;4.85;;
65552;SDS011;52465;51.560;14.368;2023-04-01T05:31:18;5.07;;;4.88;;
65552;SDS011;52465;51.560;14.368;2023-04-01T05:33:44;5.03;;;4.72;;
65552;SDS011;52465;51.560;14.368;2023-04-01T05:36:12;4.93;;;4.72;;
65552;SDS011;52465;51.560;14.368;2023-04-01T05:38:40;4.78;;;4.57;;
65552;SDS011;52465;51.560;14.368;2023-04-01T05:41:07;4.93;;;4.72;;
65552;SDS011;52465;51.560;14.368;2023-04-01T05:43:36;5.20;;;5.00;;
65552;SDS011;52465;51.560;14.368;2023-04-01T05:46:02;4.88;;;4.68;;
65552;SDS011;52465;51.560;14.368;2023-04-01T05:48:27;5.00;;;4.80;;
65552;SDS011;52465;51.560;14.368;2023-04-01T05:50:53;5.32;;;5.03;;
65552;SDS011;52465;51.560;14.368;2023-04-01T05:53:19;5.13;;;4.93;;
65552;SDS011;52465;51.560;14.368;2023-04-01T05:55:44;5.20;;;4.85;;
65552;SDS011;52465;51.560;14.368;2023-04-01T05:58:10;4.93;;;4.63;;
65552;SDS011;52465;51.560;14.368;2023-04-01T06:00:35;4.65;;;4.40;;
65552;SDS011;52465;51.560;14.368;2023-04-01T06:03:01;4.72;;;4.53;;
65552;SDS011;52465;51.560;14.368;2023-04-01T06:05:28;4.80;;;4.60;;
65552;SDS011;52465;51.560;14.368;2023-04-01T06:07:58;4.82;;;4.63;;
65552;SDS011;52465;51.560;14.368;2023-04-01T06:10:36;4.50;;;4.30;;
65552;SDS011;52465;51.560;14.368;2023-04-01T06:13:21;4.78;;;4.57;;
65552;SDS011;52465;51.560;14.368;2023-04-01T06:16:01;4.90;;;4.70;;
65552;SDS011;52465;51.560;14.368;2023-04-01T06:18:44;5.18;;;4.93;;
65552;SDS011;52465;51.560;14.368;2023-04-01T06:21:24;4.75;;;4.55;;
65552;SDS011;52465;51.560;14.368;2023-04-01T06:27:07;4.78;;;4.57;;
65552;SDS011;52465;51.560;14.368;2023-04-01T06:29:56;5.10;;;4.80;;
65552;SDS011;52465;51.560;14.368;2023-04-01T06:32:34;5.22;;;4.93;;
65552;SDS011;52465;51.560;14.368;2023-04-01T06:35:31;5.03;;;4.72;;
65552;SDS011;52465;51.560;14.368;2023-04-01T06:38:09;5.47;;;5.17;;
65552;SDS011;52465;51.560;14.368;2023-04-01T06:40:50;5.88;;;5.47;;
65552;SDS011;52465;51.560;14.368;2023-04-01T06:43:29;5.68;;;5.25;;
65552;SDS011;52465;51.560;14.368;2023-04-01T06:46:40;5.47;;;5.07;;
65552;SDS011;52465;51.560;14.368;2023-04-01T06:49:17;6.00;;;5.50;;
65552;SDS011;52465;51.560;14.368;2023-04-01T06:52:22;5.70;;;5.40;;
65552;SDS011;52465;51.560;14.368;2023-04-01T06:54:58;5.93;;;5.53;;
65552;SDS011;52465;51.560;14.368;2023-04-01T06:57:41;5.80;;;5.38;;
65552;SDS011;52465;51.560;14.368;2023-04-01T07:00:13;5.93;;;5.50;;
65552;SDS011;52465;51.560;14.368;2023-04-01T07:02:50;6.05;;;5.57;;
65552;SDS011;52465;51.560;14.368;2023-04-01T07:05:23;6.25;;;5.63;;
65552;SDS011;52465;51.560;14.368;2023-04-01T07:07:53;6.03;;;5.43;;
65552;SDS011;52465;51.560;14.368;2023-04-01T07:10:28;5.75;;;5.45;;
65552;SDS011;52465;51.560;14.368;2023-04-01T07:13:27;5.75;;;5.35;;
65552;SDS011;52465;51.560;14.368;2023-04-01T07:16:07;5.60;;;5.30;;
65552;SDS011;52465;51.560;14.368;2023-04-01T07:18:41;5.50;;;5.10;;
65552;SDS011;52465;51.560;14.368;2023-04-01T07:21:22;5.45;;;5.13;;
65552;SDS011;52465;51.560;14.368;2023-04-01T07:23:51;5.50;;;5.20;;
65552;SDS011;52465;51.560;14.368;2023-04-01T07:26:22;5.20;;;4.90;;
65552;SDS011;52465;51.560;14.368;2023-04-01T07:28:50;5.63;;;5.30;;
65552;SDS011;52465;51.560;14.368;2023-04-01T07:31:30;5.88;;;5.35;;
65552;SDS011;52465;51.560;14.368;2023-04-01T07:42:17;5.30;;;5.00;;
65552;SDS011;52465;51.560;14.368;2023-04-01T07:45:18;5.30;;;4.90;;
65552;SDS011;52465;51.560;14.368;2023-04-01T07:56:06;5.10;;;4.80;;
65552;SDS011;52465;51.560;14.368;2023-04-01T07:58:54;5.00;;;4.70;;
65552;SDS011;52465;51.560;14.368;2023-04-01T08:01:52;5.40;;;5.10;;
65552;SDS011;52465;51.560;14.368;2023-04-01T08:04:45;5.22;;;4.93;;
65552;SDS011;52465;51.560;14.368;2023-04-01T08:07:23;5.20;;;4.90;;
65552;SDS011;52465;51.560;14.368;2023-04-01T08:12:42;5.40;;;4.90;;
65552;SDS011;52465;51.560;14.368;2023-04-01T08:20:58;5.57;;;5.18;;
65552;SDS011;52465;51.560;14.368;2023-04-01T08:23:44;5.63;;;5.22;;
65552;SDS011;52465;51.560;14.368;2023-04-01T08:26:18;5.57;;;5.22;;
65552;SDS011;52465;51.560;14.368;2023-04-01T08:31:37;5.40;;;5.10;;
65552;SDS011;52465;51.560;14.368;2023-04-01T08:34:10;5.18;;;4.78;;
65552;SDS011;52465;51.560;14.368;2023-04-01T08:36:46;5.53;;;5.13;;
65552;SDS011;52465;51.560;14.368;2023-04-01T08:39:24;5.57;;;5.20;;
65552;SDS011;52465;51.560;14.368;2023-04-01T08:42:14;5.20;;;4.90;;
65552;SDS011;52465;51.560;14.368;2023-04-01T08:44:58;5.22;;;4.90;;
65552;SDS011;52465;51.560;14.368;2023-04-01T08:58:52;5.40;;;5.10;;
65552;SDS011;52465;51.560;14.368;2023-04-01T09:01:55;5.20;;;4.90;;
65552;SDS011;52465;51.560;14.368;2023-04-01T09:04:53;5.25;;;4.95;;
65552;SDS011;52465;51.560;14.368;2023-04-01T09:07:32;5.60;;;5.10;;
65552;SDS011;52465;51.560;14.368;2023-04-01T09:10:20;4.93;;;4.65;;
65552;SDS011;52465;51.560;14.368;2023-04-01T09:18:49;5.10;;;4.80;;
65552;SDS011;52465;51.560;14.368;2023-04-01T09:21:52;5.45;;;5.05;;
65552;SDS011;52465;51.560;14.368;2023-04-01T09:32:40;9.20;;;4.78;;
65552;SDS011;52465;51.560;14.368;2023-04-01T09:35:24;4.90;;;4.40;;
65552;SDS011;52465;51.560;14.368;2023-04-01T09:38:18;4.60;;;4.30;;
65552;SDS011;52465;51.560;14.368;2023-04-01T09:43:47;5.00;;;4.63;;
65552;SDS011;52465;51.560;14.368;2023-04-01T09:46:46;5.22;;;4.88;;
65552;SDS011;52465;51.560;14.368;2023-04-01T09:49:29;5.45;;;4.97;;
65552;SDS011;52465;51.560;14.368;2023-04-01T09:52:26;6.00;;;4.70;;
65552;SDS011;52465;51.560;14.368;2023-04-01T09:55:05;5.10;;;4.68;;
65552;SDS011;52465;51.560;14.368;2023-04-01T09:57:56;4.95;;;4.65;;
65552;SDS011;52465;51.560;14.368;2023-04-01T10:00:49;5.43;;;5.10;;
65552;SDS011;52465;51.560;14.368;2023-04-01T10:06:27;5.05;;;4.60;;
65552;SDS011;52465;51.560;14.368;2023-04-01T10:09:21;4.90;;;4.50;;
65552;SDS011;52465;51.560;14.368;2023-04-01T10:12:05;5.20;;;4.80;;
65552;SDS011;52465;51.560;14.368;2023-04-01T10:14:54;4.70;;;4.50;;
65552;SDS011;52465;51.560;14.368;2023-04-01T10:20:46;5.05;;;4.75;;
65552;SDS011;52465;51.560;14.368;2023-04-01T10:29:38;5.10;;;4.80;;
65552;SDS011;52465;51.560;14.368;2023-04-01T10:32:15;4.88;;;4.57;;
65552;SDS011;52465;51.560;14.368;2023-04-01T10:35:10;5.07;;;4.68;;
65552;SDS011;52465;51.560;14.368;2023-04-01T10:38:02;4.88;;;4.50;;
65552;SDS011;52465;51.560;14.368;2023-04-01T10:40:57;4.90;;;4.60;;
65552;SDS011;52465;51.560;14.368;2023-04-01T10:55:36;4.57;;;4.38;;
65552;SDS011;52465;51.560;14.368;2023-04-01T11:01:37;4.80;;;4.60;;
65552;SDS011;52465;51.560;14.368;2023-04-01T11:04:18;5.18;;;4.78;;
65552;SDS011;52465;51.560;14.368;2023-04-01T11:13:02;6.65;;;4.45;;
65552;SDS011;52465;51.560;14.368;2023-04-01T11:21:32;4.55;;;4.35;;
65552;SDS011;52465;51.560;14.368;2023-04-01T11:24:15;4.63;;;4.43;;
65552;SDS011;52465;51.560;14.368;2023-04-01T11:26:53;4.80;;;4.60;;
65552;SDS011;52465;51.560;14.368;2023-04-01T11:29:49;4.97;;;4.68;;
65552;SDS011;52465;51.560;14.368;2023-04-01T11:32:35;5.13;;;4.72;;
65552;SDS011;52465;51.560;14.368;2023-04-01T11:38:02;4.80;;;4.40;;
65552;SDS011;52465;51.560;14.368;2023-04-01T11:43:22;4.70;;;4.50;;
65552;SDS011;52465;51.560;14.368;2023-04-01T11:48:34;4.60;;;4.40;;
65552;SDS011;52465;51.560;14.368;2023-04-01T11:51:16;4.80;;;4.50;;
65552;SDS011;52465;51.560;14.368;2023-04-01T12:05:37;4.30;;;4.10;;
65552;SDS011;52465;51.560;14.368;2023-04-01T12:08:18;4.57;;;4.38;;
65552;SDS011;52465;51.560;14.368;2023-04-01T12:11:08;4.68;;;4.38;;
65552;SDS011;52465;51.560;14.368;2023-04-01T12:16:22;4.50;;;4.30;;
65552;SDS011;52465;51.560;14.368;2023-04-01T12:19:10;4.80;;;4.50;;
65552;SDS011;52465;51.560;14.368;2023-04-01T12:32:35;4.60;;;4.40;;
65552;SDS011;52465;51.560;14.368;2023-04-01T12:35:17;4.57;;;4.28;;
65552;SDS011;52465;51.560;14.368;2023-04-01T12:37:51;4.47;;;4.28;;
65552;SDS011;52465;51.560;14.368;2023-04-01T12:40:30;4.63;;;4.32;;
65552;SDS011;52465;51.560;14.368;2023-04-01T12:43:20;4.97;;;4.68;;
65552;SDS011;52465;51.560;14.368;2023-04-01T12:46:15;4.25;;;4.05;;
65552;SDS011;52465;51.560;14.368;2023-04-01T12:49:27;4.40;;;4.20;;
65552;SDS011;52465;51.560;14.368;2023-04-01T13:00:09;4.40;;;4.20;;
65552;SDS011;52465;51.560;14.368;2023-04-01T13:05:24;4.25;;;4.05;;
65552;SDS011;52465;51.560;14.368;2023-04-01T13:10:53;4.60;;;4.30;;
65552;SDS011;52465;51.560;14.368;2023-04-01T13:13:58;4.60;;;4.30;;
65552;SDS011;52465;51.560;14.368;2023-04-01T13:19:41;4.18;;;4.05;;
65552;SDS011;52465;51.560;14.368;2023-04-01T13:30:59;4.70;;;4.50;;
65552;SDS011;52465;51.560;14.368;2023-04-01T13:33:53;4.43;;;4.22;;
65552;SDS011;52465;51.560;14.368;2023-04-01T13:36:53;4.22;;;4.03;;
65552;SDS011;52465;51.560;14.368;2023-04-01T13:44:51;4.25;;;4.05;;
65552;SDS011;52465;51.560;14.368;2023-04-01T13:47:34;4.10;;;3.90;;
65552;SDS011;52465;51.560;14.368;2023-04-01T13:53:36;4.20;;;4.00;;
65552;SDS011;52465;51.560;14.368;2023-04-01T13:59:19;4.18;;;3.95;;
65552;SDS011;52465;51.560;14.368;2023-04-01T14:07:32;4.35;;;4.15;;
65552;SDS011;52465;51.560;14.368;2023-04-01T14:10:19;3.95;;;3.85;;
65552;SDS011;52465;51.560;14.368;2023-04-01T14:19:40;4.63;;;4.32;;
65552;SDS011;52465;51.560;14.368;2023-04-01T14:22:26;4.30;;;4.00;;
65552;SDS011;52465;51.560;14.368;2023-04-01T14:28:40;4.20;;;4.00;;
65552;SDS011;52465;51.560;14.368;2023-04-01T14:31:32;4.20;;;4.00;;
65552;SDS011;52465;51.560;14.368;2023-04-01T14:37:07;4.10;;;3.90;;
65552;SDS011;52465;51.560;14.368;2023-04-01T14:50:22;4.30;;;4.10;;
65552;SDS011;52465;51.560;14.368;2023-04-01T14:52:57;4.28;;;4.00;;
65552;SDS011;52465;51.560;14.368;2023-04-01T14:55:36;4.03;;;3.92;;
65552;SDS011;52465;51.560;14.368;2023-04-01T14:58:43;4.13;;;4.03;;
65552;SDS011;52465;51.560;14.368;2023-04-01T15:01:13;4.55;;;4.35;;
65552;SDS011;52465;51.560;14.368;2023-04-01T15:03:48;4.18;;;3.97;;
65552;SDS011;52465;51.560;14.368;2023-04-01T15:06:55;4.40;;;4.10;;
65552;SDS011;52465;51.560;14.368;2023-04-01T15:09:43;4.20;;;4.00;;
65552;SDS011;52465;51.560;14.368;2023-04-01T15:15:18;4.38;;;4.18;;
65552;SDS011;52465;51.560;14.368;2023-04-01T15:18:07;4.47;;;4.20;;
65552;SDS011;52465;51.560;14.368;2023-04-01T15:23:27;4.07;;;3.90;;
65552;SDS011;52465;51.560;14.368;2023-04-01T15:31:45;4.32;;;4.13;;
65552;SDS011;52465;51.560;14.368;2023-04-01T15:36:51;4.65;;;4.40;;
65552;SDS011;52465;51.560;14.368;2023-04-01T15:42:35;4.30;;;4.10;;
65552;SDS011;52465;51.560;14.368;2023-04-01T15:53:28;4.03;;;3.85;;
65552;SDS011;52465;51.560;14.368;2023-04-01T15:56:11;4.38;;;4.10;;
65552;SDS011;52465;51.560;14.368;2023-04-01T15:59:02;4.60;;;4.40;;
65552;SDS011;52465;51.560;14.368;2023-04-01T16:01:59;4.43;;;4.22;;
65552;SDS011;52465;51.560;14.368;2023-04-01T16:07:42;4.50;;;4.30;;
65552;SDS011;52465;51.560;14.368;2023-04-01T16:18:52;4.40;;;4.20;;
65552;SDS011;52465;51.560;14.368;2023-04-01T16:24:24;4.60;;;4.40;;
65552;SDS011;52465;51.560;14.368;2023-04-01T16:27:03;4.55;;;4.25;;
65552;SDS011;52465;51.560;14.368;2023-04-01T16:30:01;4.53;;;4.32;;
65552;SDS011;52465;51.560;14.368;2023-04-01T16:32:38;4.50;;;4.30;;
65552;SDS011;52465;51.560;14.368;2023-04-01T16:46:20;4.80;;;4.60;;
65552;SDS011;52465;51.560;14.368;2023-04-01T16:51:40;4.90;;;4.50;;
65552;SDS011;52465;51.560;14.368;2023-04-01T16:54:26;4.63;;;4.35;;
65552;SDS011;52465;51.560;14.368;2023-04-01T16:57:26;4.65;;;4.45;;
65552;SDS011;52465;51.560;14.368;2023-04-01T16:59:57;4.80;;;4.50;;
65552;SDS011;52465;51.560;14.368;2023-04-01T17:02:47;4.70;;;4.50;;
65552;SDS011;52465;51.560;14.368;2023-04-01T17:10:53;4.60;;;4.40;;
65552;SDS011;52465;51.560;14.368;2023-04-01T17:13:46;4.75;;;4.55;;
65552;SDS011;52465;51.560;14.368;2023-04-01T17:16:26;4.90;;;4.60;;
65552;SDS011;52465;51.560;14.368;2023-04-01T17:21:56;4.60;;;4.40;;
65552;SDS011;52465;51.560;14.368;2023-04-01T17:24:47;4.90;;;4.60;;
65552;SDS011;52465;51.560;14.368;2023-04-01T17:30:24;4.97;;;4.75;;
65552;SDS011;52465;51.560;14.368;2023-04-01T17:33:01;5.30;;;4.90;;
65552;SDS011;52465;51.560;14.368;2023-04-01T17:35:39;4.60;;;4.35;;
65552;SDS011;52465;51.560;14.368;2023-04-01T17:43:49;4.80;;;4.60;;
65552;SDS011;52465;51.560;14.368;2023-04-01T17:46:24;4.72;;;4.53;;
65552;SDS011;52465;51.560;14.368;2023-04-01T17:49:02;4.80;;;4.50;;
65552;SDS011;52465;51.560;14.368;2023-04-01T17:52:09;4.57;;;4.38;;
65552;SDS011;52465;51.560;14.368;2023-04-01T18:00:17;4.90;;;4.70;;
65552;SDS011;52465;51.560;14.368;2023-04-01T18:08:41;4.78;;;4.55;;
65552;SDS011;52465;51.560;14.368;2023-04-01T18:11:22;4.75;;;4.50;;
65552;SDS011;52465;51.560;14.368;2023-04-01T18:22:28;5.13;;;4.72;;
65552;SDS011;52465;51.560;14.368;2023-04-01T18:25:12;5.32;;;5.03;;
65552;SDS011;52465;51.560;14.368;2023-04-01T18:27:46;5.00;;;4.70;;
65552;SDS011;52465;51.560;14.368;2023-04-01T18:30:21;5.15;;;4.85;;
65552;SDS011;52465;51.560;14.368;2023-04-01T18:33:18;5.00;;;4.70;;
65552;SDS011;52465;51.560;14.368;2023-04-01T18:36:03;5.05;;;4.75;;
65552;SDS011;52465;51.560;14.368;2023-04-01T18:38:45;5.25;;;4.95;;
65552;SDS011;52465;51.560;14.368;2023-04-01T18:43:54;4.68;;;4.47;;
65552;SDS011;52465;51.560;14.368;2023-04-01T18:52:15;4.97;;;4.68;;
65552;SDS011;52465;51.560;14.368;2023-04-01T18:57:25;5.07;;;4.78;;
65552;SDS011;52465;51.560;14.368;2023-04-01T19:00:36;4.93;;;4.63;;
65552;SDS011;52465;51.560;14.368;2023-04-01T19:03:23;5.10;;;4.80;;
65552;SDS011;52465;51.560;14.368;2023-04-01T19:05:56;4.93;;;4.65;;
65552;SDS011;52465;51.560;14.368;2023-04-01T19:08:55;5.15;;;4.95;;
65552;SDS011;52465;51.560;14.368;2023-04-01T19:12:01;5.45;;;5.13;;
65552;SDS011;52465;51.560;14.368;2023-04-01T19:14:39;5.10;;;4.80;;
65552;SDS011;52465;51.560;14.368;2023-04-01T19:25:23;5.25;;;4.85;;
65552;SDS011;52465;51.560;14.368;2023-04-01T19:28:07;5.30;;;5.00;;
65552;SDS011;52465;51.560;14.368;2023-04-01T19:33:31;5.57;;;5.18;;
65552;SDS011;52465;51.560;14.368;2023-04-01T19:36:34;5.38;;;5.07;;
65552;SDS011;52465;51.560;14.368;2023-04-01T19:42:33;5.03;;;4.72;;
65552;SDS011;52465;51.560;14.368;2023-04-01T19:45:20;5.28;;;4.97;;
65552;SDS011;52465;51.560;14.368;2023-04-01T19:50:37;5.38;;;4.97;;
65552;SDS011;52465;51.560;14.368;2023-04-01T19:56:02;5.47;;;5.10;;
65552;SDS011;52465;51.560;14.368;2023-04-01T19:59:19;5.25;;;4.95;;
65552;SDS011;52465;51.560;14.368;2023-04-01T20:02:00;5.60;;;5.20;;
65552;SDS011;52465;51.560;14.368;2023-04-01T20:07:07;5.40;;;5.10;;
65552;SDS011;52465;51.560;14.368;2023-04-01T20:09:57;5.50;;;5.20;;
65552;SDS011;52465;51.560;14.368;2023-04-01T20:15:20;5.15;;;4.85;;
65552;SDS011;52465;51.560;14.368;2023-04-01T20:17:46;5.55;;;5.20;;
65552;SDS011;52465;51.560;14.368;2023-04-01T20:20:15;5.60;;;5.20;;
65552;SDS011;52465;51.560;14.368;2023-04-01T20:25:14;6.10;;;5.70;;
65552;SDS011;52465;51.560;14.368;2023-04-01T20:27:44;5.38;;;5.07;;
65552;SDS011;52465;51.560;14.368;2023-04-01T20:30:22;5.57;;;5.10;;
65552;SDS011;52465;51.560;14.368;2023-04-01T20:47:28;5.40;;;5.10;;
65552;SDS011;52465;51.560;14.368;2023-04-01T21:11:35;5.47;;;5.18;;
65552;SDS011;52465;51.560;14.368;2023-04-01T21:14:24;5.47;;;5.18;;
65552;SDS011;52465;51.560;14.368;2023-04-01T21:17:01;5.40;;;5.10;;
65552;SDS011;52465;51.560;14.368;2023-04-01T21:22:33;5.20;;;4.78;;
65552;SDS011;52465;51.560;14.368;2023-04-01T21:25:20;5.65;;;5.25;;
65552;SDS011;52465;51.560;14.368;2023-04-01T21:28:01;5.65;;;5.18;;
65552;SDS011;52465;51.560;14.368;2023-04-01T21:31:03;5.57;;;5.20;;
65552;SDS011;52465;51.560;14.368;2023-04-01T21:33:50;5.65;;;5.22;;
65552;SDS011;52465;51.560;14.368;2023-04-01T21:39:08;5.63;;;5.25;;
65552;SDS011;52465;51.560;14.368;2023-04-01T21:44:56;5.85;;;5.40;;
65552;SDS011;52465;51.560;14.368;2023-04-01T21:47:48;5.53;;;5.13;;
65552;SDS011;52465;51.560;14.368;2023-04-01T21:50:53;5.60;;;5.30;;
65552;SDS011;52465;51.560;14.368;2023-04-01T21:54:04;5.57;;;5.18;;
65552;SDS011;52465;51.560;14.368;2023-04-01T22:05:15;5.70;;;5.30;;
65552;SDS011;52465;51.560;14.368;2023-04-01T22:13:10;5.70;;;5.40;;
65552;SDS011;52465;51.560;14.368;2023-04-01T22:15:48;6.10;;;5.70;;
65552;SDS011;52465;51.560;14.368;2023-04-01T22:18:25;5.65;;;5.28;;
65552;SDS011;52465;51.560;14.368;2023-04-01T22:26:44;5.85;;;5.45;;
65552;SDS011;52465;51.560;14.368;2023-04-01T22:31:45;5.00;;;4.70;;